Time;durP1;ratioP1;P1;durP2;ratioP2;P2;SDS_P1;SDS_P2;PMS_P1;PMS_P2;Temp;Humidity;BMP_temperature;BMP_pressure;BME280_temperature;BME280_humidity;BME280_pressure;Samples;Min_cycle;Max_cycle;Signal;HPM_P1;HPM_P2
2022/10/26 00:01:07;;;;;;;24.52;14.38;;;9.80;99.90;;;;;;5001073;28;20048;-66
2022/10/26 00:03:34;;;;;;;19.48;12.50;;;9.70;99.90;;;;;;5019099;28;20105;-66
2022/10/26 00:06:05;;;;;;;18.23;13.60;;;9.80;99.90;;;;;;5014017;28;20053;-65
2022/10/26 00:08:31;;;;;;;19.17;12.18;;;9.70;99.90;;;;;;5015111;28;20224;-66
2022/10/26 00:10:57;;;;;;;19.85;12.95;;;9.70;99.90;;;;;;5025077;28;20528;-66
2022/10/26 00:13:23;;;;;;;16.42;12.75;;;9.70;99.90;;;;;;5034328;28;20210;-65
2022/10/26 00:15:48;;;;;;;16.58;12.90;;;9.70;99.90;;;;;;5016948;28;20085;-66
2022/10/26 00:18:14;;;;;;;16.25;12.65;;;9.70;99.90;;;;;;5017828;28;20527;-65
2022/10/26 00:20:41;;;;;;;19.90;13.77;;;9.60;99.90;;;;;;5019789;28;20042;-65
2022/10/26 00:23:06;;;;;;;19.02;12.93;;;9.70;99.90;;;;;;5021425;28;20058;-66
2022/10/26 00:25:32;;;;;;;20.17;14.48;;;9.60;99.90;;;;;;4999764;28;20087;-66
2022/10/26 00:27:58;;;;;;;13.80;11.40;;;9.60;99.90;;;;;;5020045;28;20042;-66
2022/10/26 00:30:24;;;;;;;17.65;11.77;;;9.50;99.90;;;;;;5019358;28;20030;-65
2022/10/26 00:32:49;;;;;;;19.20;12.85;;;9.60;99.90;;;;;;5018339;28;20050;-65
2022/10/26 00:35:15;;;;;;;19.98;12.55;;;9.50;99.90;;;;;;5001699;28;20095;-66
2022/10/26 00:37:41;;;;;;;21.23;12.85;;;9.50;99.90;;;;;;5020332;28;20053;-65
2022/10/26 00:40:07;;;;;;;17.60;11.98;;;9.40;99.90;;;;;;5022142;28;20049;-66
2022/10/26 00:42:32;;;;;;;20.00;12.90;;;9.40;99.90;;;;;;5023493;28;20052;-66
2022/10/26 00:45:38;;;;;;;17.05;11.95;;;9.30;99.90;;;;;;5026694;28;20370;-66
2022/10/26 00:48:06;;;;;;;;;;;9.30;99.90;;;;;;4945543;29;20036;-66
2022/10/26 00:50:35;;;;;;;16.10;10.93;;;9.20;99.90;;;;;;4948819;28;19923;-65
2022/10/26 00:53:03;;;;;;;18.25;12.07;;;9.20;99.90;;;;;;4981505;28;20649;-66
2022/10/26 00:55:33;;;;;;;14.82;11.73;;;9.10;99.90;;;;;;5014582;28;20042;-65
2022/10/26 00:58:01;;;;;;;16.65;12.30;;;9.00;99.90;;;;;;5018064;28;20125;-65
2022/10/26 01:00:27;;;;;;;17.55;12.43;;;9.10;99.90;;;;;;5014347;28;20103;-65
2022/10/26 01:02:56;;;;;;;14.07;11.63;;;9.10;99.90;;;;;;5007834;28;20046;-65
2022/10/26 01:05:22;;;;;;;22.80;13.50;;;9.00;99.90;;;;;;5031610;28;20048;-66
2022/10/26 01:07:50;;;;;;;20.92;13.57;;;9.00;99.90;;;;;;5020047;28;20045;-66
2022/10/26 01:10:17;;;;;;;20.10;12.75;;;9.10;99.90;;;;;;5013222;28;20100;-66
2022/10/26 01:12:43;;;;;;;22.50;13.43;;;9.00;99.90;;;;;;5017690;28;20440;-66
2022/10/26 01:15:10;;;;;;;24.15;13.98;;;8.90;99.90;;;;;;4996940;28;20049;-65
2022/10/26 01:17:53;;;;;;;24.83;14.18;;;8.90;99.90;;;;;;5019459;28;20038;-66
2022/10/26 01:20:40;;;;;;;17.88;13.68;;;8.90;99.90;;;;;;5019984;28;20045;-66
2022/10/26 01:23:25;;;;;;;19.48;14.15;;;8.90;99.90;;;;;;5030131;28;20544;-66
2022/10/26 01:25:53;;;;;;;18.70;13.30;;;8.90;99.90;;;;;;5013387;28;20045;-66
2022/10/26 01:28:43;;;;;;;27.38;15.38;;;8.80;99.90;;;;;;5016093;28;20034;-66
2022/10/26 01:31:12;;;;;;;20.00;13.52;;;8.80;99.90;;;;;;5009587;28;20160;-66
2022/10/26 01:33:45;;;;;;;18.90;13.52;;;8.80;99.90;;;;;;5015218;28;20108;-66
2022/10/26 01:36:28;;;;;;;22.73;15.15;;;8.80;99.90;;;;;;5018589;28;20034;-66
2022/10/26 01:39:07;;;;;;;21.63;13.05;;;8.70;99.90;;;;;;5014137;28;20123;-66
2022/10/26 01:41:47;;;;;;;24.25;14.65;;;8.80;99.90;;;;;;5001343;28;20049;-66
2022/10/26 01:44:22;;;;;;;23.40;14.65;;;8.80;99.90;;;;;;4995049;28;20039;-65
2022/10/26 01:46:49;;;;;;;;;;;8.80;99.90;;;;;;4996865;28;20501;-66
2022/10/26 01:49:20;;;;;;;26.58;15.93;;;8.80;99.90;;;;;;5000142;28;20352;-66
2022/10/26 01:51:48;;;;;;;22.80;13.88;;;8.80;99.90;;;;;;4999476;28;20143;-66
2022/10/26 01:54:13;;;;;;;23.15;14.27;;;8.70;99.90;;;;;;4981129;28;20052;-66
2022/10/26 01:56:42;;;;;;;20.58;13.75;;;8.70;99.90;;;;;;4997720;28;20457;-66
2022/10/26 01:59:30;;;;;;;27.35;15.13;;;8.60;99.90;;;;;;4995821;28;20045;-66
2022/10/26 02:02:14;;;;;;;22.95;14.88;;;8.70;99.90;;;;;;4998098;28;20050;-66
2022/10/26 02:04:48;;;;;;;21.10;15.03;;;8.60;99.90;;;;;;4993801;28;20489;-66
2022/10/26 02:07:38;;;;;;;21.45;14.80;;;8.70;99.90;;;;;;5008932;28;20552;-66
2022/10/26 02:10:34;;;;;;;26.77;16.80;;;8.60;99.90;;;;;;4992082;28;20037;-66
2022/10/26 02:13:13;;;;;;;27.92;17.63;;;8.70;99.90;;;;;;5013944;28;20048;-65
2022/10/26 02:16:00;;;;;;;24.50;16.67;;;8.60;99.90;;;;;;4993189;28;20046;-65
2022/10/26 02:19:11;;;;;;;23.60;14.88;;;8.70;99.90;;;;;;5010842;28;20096;-66
2022/10/26 02:21:47;;;;;;;24.15;15.98;;;8.60;99.90;;;;;;4980625;28;20141;-66
2022/10/26 02:24:16;;;;;;;26.10;15.57;;;8.70;99.90;;;;;;4997726;28;20035;-66
2022/10/26 02:26:44;;;;;;;20.88;15.00;;;8.70;99.90;;;;;;5015620;28;20285;-66
2022/10/26 02:29:15;;;;;;;23.20;16.13;;;8.60;99.90;;;;;;4993728;28;20039;-67
2022/10/26 02:31:42;;;;;;;23.98;17.27;;;8.60;99.90;;;;;;5000225;28;20042;-67
2022/10/26 02:34:11;;;;;;;26.95;18.92;;;8.60;99.90;;;;;;4997518;28;20116;-67
2022/10/26 02:36:41;;;;;;;23.08;16.63;;;8.60;99.90;;;;;;4998283;28;20412;-66
2022/10/26 02:39:09;;;;;;;29.52;18.08;;;8.60;99.90;;;;;;4997680;28;20038;-66
2022/10/26 02:41:36;;;;;;;28.60;18.38;;;8.60;99.90;;;;;;5016562;28;20054;-67
2022/10/26 02:44:39;;;;;;;25.15;18.75;;;8.60;99.90;;;;;;5016313;28;20122;-66
2022/10/26 02:47:04;;;;;;;34.40;18.50;;;8.60;99.90;;;;;;4982794;28;20114;-66
2022/10/26 02:49:30;;;;;;;24.17;18.30;;;8.60;99.90;;;;;;5018189;28;20140;-67
2022/10/26 02:52:14;;;;;;;25.85;17.45;;;8.60;99.90;;;;;;5019128;28;20354;-66
2022/10/26 02:55:02;;;;;;;30.58;17.83;;;8.60;99.90;;;;;;5012329;28;20064;-67
2022/10/26 02:57:38;;;;;;;31.00;19.02;;;8.60;99.90;;;;;;5025661;28;20480;-66
2022/10/26 03:00:09;;;;;;;28.33;18.65;;;8.60;99.90;;;;;;5019825;28;20034;-67
2022/10/26 03:02:35;;;;;;;29.00;18.45;;;8.50;99.90;;;;;;5017395;28;20042;-66
2022/10/26 03:05:23;;;;;;;28.13;17.95;;;8.60;99.90;;;;;;4963398;28;20113;-66
2022/10/26 03:07:48;;;;;;;23.60;18.00;;;8.60;99.90;;;;;;4995855;28;20055;-67
2022/10/26 03:10:14;;;;;;;31.67;18.42;;;8.50;99.90;;;;;;4985751;28;20117;-67
2022/10/26 03:12:40;;;;;;;28.50;18.85;;;8.60;99.90;;;;;;5017399;28;20037;-66
2022/10/26 03:15:06;;;;;;;30.55;19.48;;;8.60;99.90;;;;;;5017932;28;20042;-66
2022/10/26 03:17:32;;;;;;;24.73;18.23;;;8.60;99.90;;;;;;5010940;28;20065;-66
2022/10/26 03:19:57;;;;;;;30.90;19.58;;;8.60;99.90;;;;;;5014363;28;20045;-67
2022/10/26 03:22:23;;;;;;;32.83;21.40;;;8.70;99.90;;;;;;5015837;28;20547;-67
2022/10/26 03:24:48;;;;;;;29.60;19.58;;;8.70;99.90;;;;;;5013953;28;20121;-67
2022/10/26 03:27:14;;;;;;;34.67;21.63;;;8.70;99.90;;;;;;5019486;28;20434;-67
2022/10/26 03:29:40;;;;;;;35.53;21.02;;;8.70;99.90;;;;;;5003453;28;20457;-66
2022/10/26 03:32:06;;;;;;;33.25;21.23;;;8.70;99.90;;;;;;5003807;28;20392;-67
2022/10/26 03:34:32;;;;;;;30.33;21.20;;;8.70;99.90;;;;;;5020599;28;20041;-66
2022/10/26 03:36:58;;;;;;;33.60;21.05;;;8.70;99.90;;;;;;5020578;28;20057;-66
2022/10/26 03:39:24;;;;;;;32.88;21.08;;;8.80;99.90;;;;;;5003961;28;20065;-67
2022/10/26 03:41:49;;;;;;;33.25;21.35;;;8.80;99.90;;;;;;5018575;28;20045;-66
2022/10/26 03:44:15;;;;;;;32.78;21.85;;;8.80;99.90;;;;;;5022441;28;20504;-67
2022/10/26 03:46:41;;;;;;;29.90;21.20;;;8.80;99.90;;;;;;5023947;28;20037;-66
2022/10/26 03:49:07;;;;;;;34.85;22.52;;;8.80;99.90;;;;;;5019771;28;20034;-67
2022/10/26 03:51:32;;;;;;;34.47;21.83;;;8.80;99.90;;;;;;5019352;28;20087;-66
2022/10/26 03:53:58;;;;;;;32.17;21.42;;;8.80;99.90;;;;;;5015389;28;20034;-66
2022/10/26 03:56:24;;;;;;;30.65;21.38;;;8.90;99.90;;;;;;5023100;28;20085;-66
2022/10/26 03:58:50;;;;;;;35.30;21.80;;;8.90;99.90;;;;;;5003105;28;20145;-67
2022/10/26 04:01:16;;;;;;;32.53;21.52;;;8.80;99.90;;;;;;4999138;28;20084;-67
2022/10/26 04:03:41;;;;;;;34.17;22.85;;;8.90;99.90;;;;;;5029123;28;20128;-67
2022/10/26 04:06:07;;;;;;;33.45;21.65;;;8.80;99.90;;;;;;5021050;28;20049;-66
2022/10/26 04:08:33;;;;;;;29.13;21.13;;;8.80;99.90;;;;;;5021344;28;20045;-66
2022/10/26 04:10:58;;;;;;;34.55;21.48;;;8.90;99.90;;;;;;5018499;28;20124;-67
2022/10/26 04:13:24;;;;;;;33.33;21.33;;;8.90;99.90;;;;;;5016700;28;20120;-66
2022/10/26 04:15:50;;;;;;;33.17;22.23;;;8.90;99.90;;;;;;5005895;28;20054;-66
2022/10/26 04:18:16;;;;;;;32.65;22.48;;;8.90;99.90;;;;;;5020571;28;20124;-66
2022/10/26 04:20:42;;;;;;;34.75;21.80;;;8.90;99.90;;;;;;5017743;28;20412;-66
2022/10/26 04:23:13;;;;;;;28.85;20.75;;;9.00;99.90;;;;;;5012113;28;20029;-66
2022/10/26 04:25:39;;;;;;;32.70;21.92;;;9.00;99.90;;;;;;5021129;28;20056;-67
2022/10/26 04:28:06;;;;;;;33.45;21.70;;;9.10;99.90;;;;;;5020448;28;20037;-66
2022/10/26 04:30:33;;;;;;;35.00;22.55;;;9.10;99.90;;;;;;5022524;28;20038;-66
2022/10/26 04:32:59;;;;;;;28.50;19.73;;;9.10;99.90;;;;;;5015955;28;20091;-67
2022/10/26 04:35:26;;;;;;;31.80;20.77;;;9.10;99.90;;;;;;5018516;28;20030;-67
2022/10/26 04:37:56;;;;;;;27.83;20.48;;;9.10;99.90;;;;;;4994426;28;20030;-66
2022/10/26 04:40:22;;;;;;;29.08;20.02;;;9.20;99.90;;;;;;5012654;28;20069;-67
2022/10/26 04:42:48;;;;;;;29.85;21.15;;;9.20;99.90;;;;;;5021168;28;20041;-67
2022/10/26 04:45:15;;;;;;;28.55;20.95;;;9.20;99.90;;;;;;5000281;28;20044;-67
2022/10/26 04:47:41;;;;;;;29.00;20.73;;;9.20;99.90;;;;;;5017526;28;20041;-67
2022/10/26 04:50:08;;;;;;;29.10;19.85;;;9.20;99.90;;;;;;5002053;28;20042;-66
2022/10/26 04:52:34;;;;;;;29.60;20.80;;;9.30;99.90;;;;;;5011694;28;20049;-67
2022/10/26 04:55:00;;;;;;;29.05;20.38;;;9.30;99.90;;;;;;5012657;28;20175;-67
2022/10/26 04:57:26;;;;;;;27.73;20.17;;;9.30;99.90;;;;;;5017705;28;20092;-67
2022/10/26 04:59:52;;;;;;;31.70;19.85;;;9.30;99.90;;;;;;5022802;28;20068;-67
2022/10/26 05:02:19;;;;;;;32.78;20.13;;;9.40;99.90;;;;;;5014979;28;20050;-67
2022/10/26 05:04:45;;;;;;;26.83;20.63;;;9.30;99.90;;;;;;5016731;28;20054;-66
2022/10/26 05:07:11;;;;;;;33.60;20.73;;;9.40;99.90;;;;;;5013183;28;20042;-67
2022/10/26 05:09:37;;;;;;;27.58;19.85;;;9.40;99.90;;;;;;5004500;28;20516;-66
2022/10/26 05:12:03;;;;;;;29.30;20.30;;;9.40;99.90;;;;;;5015171;28;20473;-67
2022/10/26 05:14:28;;;;;;;26.63;19.52;;;9.40;99.90;;;;;;5018947;28;20460;-67
2022/10/26 05:16:55;;;;;;;27.33;18.98;;;9.40;99.90;;;;;;5021109;28;20041;-67
2022/10/26 05:19:20;;;;;;;27.77;19.75;;;9.40;99.90;;;;;;5009340;28;20069;-67
2022/10/26 05:21:46;;;;;;;31.00;19.48;;;9.50;99.90;;;;;;5008900;28;20080;-66
2022/10/26 05:24:12;;;;;;;28.45;18.80;;;9.50;99.90;;;;;;5018187;28;20046;-67
2022/10/26 05:26:37;;;;;;;24.88;18.63;;;9.50;99.90;;;;;;5019215;28;20110;-67
2022/10/26 05:29:03;;;;;;;29.35;18.42;;;9.50;99.90;;;;;;5012691;28;20152;-67
2022/10/26 05:31:28;;;;;;;22.60;17.55;;;9.50;99.90;;;;;;5016154;28;20037;-67
2022/10/26 05:33:54;;;;;;;23.17;18.02;;;9.60;99.90;;;;;;4996484;28;20042;-66
2022/10/26 05:36:20;;;;;;;29.25;18.42;;;9.60;99.90;;;;;;5022197;28;20164;-66
2022/10/26 05:38:46;;;;;;;22.48;17.35;;;9.60;99.90;;;;;;5012533;28;20200;-66
2022/10/26 05:41:12;;;;;;;24.90;17.00;;;9.60;99.90;;;;;;5013605;28;20465;-66
2022/10/26 05:43:38;;;;;;;23.73;17.65;;;9.70;99.90;;;;;;5008567;28;20034;-66
2022/10/26 05:46:04;;;;;;;25.55;17.50;;;9.70;99.90;;;;;;4982760;28;20041;-66
2022/10/26 05:48:29;;;;;;;27.65;17.33;;;9.70;99.90;;;;;;5003578;28;20040;-66
2022/10/26 05:50:59;;;;;;;23.45;17.50;;;9.80;99.90;;;;;;5024084;28;20536;-66
2022/10/26 05:53:25;;;;;;;25.00;15.68;;;9.70;99.90;;;;;;4999474;28;20745;-66
2022/10/26 05:55:51;;;;;;;20.90;15.52;;;9.80;99.90;;;;;;5009789;28;20049;-67
2022/10/26 05:58:17;;;;;;;20.80;15.70;;;9.80;99.90;;;;;;5009677;28;20037;-67
2022/10/26 06:01:14;;;;;;;18.58;15.10;;;9.80;99.90;;;;;;5010196;28;20054;-67
2022/10/26 06:04:10;;;;;;;19.88;14.88;;;9.90;99.90;;;;;;5004248;28;20431;-67
2022/10/26 06:06:44;;;;;;;21.73;14.95;;;9.90;99.90;;;;;;5009602;28;20127;-67
2022/10/26 06:09:14;;;;;;;19.48;15.63;;;9.90;99.90;;;;;;5012843;28;20429;-67
2022/10/26 06:11:40;;;;;;;21.15;15.35;;;9.90;99.90;;;;;;5016610;28;20232;-67
2022/10/26 06:14:07;;;;;;;19.85;14.98;;;9.90;99.90;;;;;;5013257;28;20037;-67
2022/10/26 06:16:37;;;;;;;22.85;17.05;;;9.90;99.90;;;;;;5017367;28;20041;-67
2022/10/26 06:19:37;;;;;;;22.48;14.65;;;10.00;99.90;;;;;;5005676;28;20104;-67
2022/10/26 06:22:14;;;;;;;17.63;14.18;;;9.90;99.90;;;;;;4998986;28;20493;-67
2022/10/26 06:25:17;;;;;;;23.05;15.02;;;9.90;99.90;;;;;;5018503;28;20088;-67
2022/10/26 06:27:55;;;;;;;21.88;15.55;;;9.90;99.90;;;;;;5009966;28;20133;-67
2022/10/26 06:30:22;;;;;;;20.40;14.20;;;9.90;99.90;;;;;;5017340;28;20117;-67
2022/10/26 06:32:49;;;;;;;22.70;15.52;;;9.90;99.90;;;;;;5013212;28;20103;-67
2022/10/26 06:35:21;;;;;;;18.90;15.30;;;9.90;99.90;;;;;;4995524;28;20083;-68
2022/10/26 06:37:49;;;;;;;20.48;15.75;;;10.00;99.90;;;;;;5008764;28;20045;-67
2022/10/26 06:40:16;;;;;;;23.05;15.05;;;9.90;99.90;;;;;;5015169;28;20103;-67
2022/10/26 06:42:45;;;;;;;19.77;13.57;;;9.90;99.90;;;;;;5012132;28;20089;-67
2022/10/26 06:45:15;;;;;;;17.52;14.38;;;9.90;99.90;;;;;;5014207;28;20061;-67
2022/10/26 06:47:52;;;;;;;18.17;14.20;;;9.90;99.90;;;;;;5010720;28;20045;-67
2022/10/26 06:50:28;;;;;;;19.58;14.18;;;9.90;99.90;;;;;;5012766;28;20033;-67
2022/10/26 06:53:01;;;;;;;19.23;14.70;;;10.00;99.90;;;;;;5013294;28;20064;-67
2022/10/26 06:55:36;;;;;;;16.30;12.83;;;10.00;99.90;;;;;;4992840;28;20054;-67
2022/10/26 06:58:03;;;;;;;18.00;14.23;;;10.00;99.90;;;;;;5016747;28;20462;-67
2022/10/26 07:00:29;;;;;;;19.95;14.32;;;10.10;99.90;;;;;;5012562;28;20381;-67
2022/10/26 07:02:57;;;;;;;19.23;13.85;;;10.20;99.90;;;;;;5013797;28;20063;-67
2022/10/26 07:05:22;;;;;;;16.35;13.13;;;10.20;99.90;;;;;;5033430;28;20446;-67
2022/10/26 07:07:48;;;;;;;15.90;12.68;;;10.40;99.90;;;;;;5032156;28;20125;-67
2022/10/26 07:10:14;;;;;;;15.63;12.63;;;10.40;99.90;;;;;;5023033;28;20354;-67
2022/10/26 07:12:40;;;;;;;15.20;12.30;;;10.50;99.90;;;;;;5020116;28;20049;-67
2022/10/26 07:15:09;;;;;;;15.18;11.70;;;10.60;99.90;;;;;;5015641;28;20028;-67
2022/10/26 07:17:45;;;;;;;16.67;11.65;;;10.90;99.90;;;;;;5011244;28;20029;-67
2022/10/26 07:20:12;;;;;;;13.15;11.45;;;11.20;99.90;;;;;;4998707;28;20050;-67
2022/10/26 07:22:38;;;;;;;14.18;10.55;;;11.70;99.90;;;;;;5015241;28;20042;-67
2022/10/26 07:25:05;;;;;;;12.00;9.82;;;12.50;99.90;;;;;;5032289;28;20084;-67
2022/10/26 07:27:31;;;;;;;14.60;10.52;;;12.60;99.90;;;;;;5020128;28;20095;-68
2022/10/26 07:29:57;;;;;;;11.88;9.98;;;12.50;99.90;;;;;;5002348;28;20041;-68
2022/10/26 07:32:22;;;;;;;14.25;9.13;;;12.30;99.90;;;;;;5012232;28;20041;-67
2022/10/26 07:34:48;;;;;;;11.30;9.07;;;12.20;99.90;;;;;;5016219;28;20555;-67
2022/10/26 07:37:14;;;;;;;13.82;8.80;;;12.10;99.90;;;;;;5018009;28;20493;-67
2022/10/26 07:39:40;;;;;;;10.57;8.38;;;12.00;99.90;;;;;;5020754;28;20571;-67
2022/10/26 07:42:05;;;;;;;9.88;8.25;;;12.10;99.90;;;;;;5019172;28;20416;-66
2022/10/26 07:44:31;;;;;;;11.07;8.15;;;12.40;99.90;;;;;;4998602;28;20045;-67
2022/10/26 07:46:57;;;;;;;11.30;7.57;;;12.80;99.90;;;;;;5024142;28;20041;-67
2022/10/26 07:49:22;;;;;;;9.63;7.00;;;13.10;99.90;;;;;;5004225;28;20099;-66
2022/10/26 07:51:48;;;;;;;9.55;7.03;;;13.10;99.90;;;;;;5015409;28;20040;-66
2022/10/26 07:54:14;;;;;;;9.70;7.97;;;13.10;99.90;;;;;;5015664;28;20033;-67
2022/10/26 07:56:39;;;;;;;12.15;7.63;;;13.20;99.90;;;;;;5021489;28;20133;-67
2022/10/26 07:59:05;;;;;;;10.98;7.32;;;13.30;99.90;;;;;;5017947;28;20128;-67
2022/10/26 08:01:31;;;;;;;9.57;6.72;;;13.30;99.90;;;;;;5015254;28;20126;-67
2022/10/26 08:03:56;;;;;;;8.02;6.18;;;13.40;99.90;;;;;;5015857;28;20053;-67
2022/10/26 08:06:23;;;;;;;10.68;6.25;;;13.40;99.90;;;;;;5020916;28;20121;-67
2022/10/26 08:08:48;;;;;;;8.15;5.57;;;13.50;99.90;;;;;;5017820;28;20045;-67
2022/10/26 08:11:15;;;;;;;8.75;5.60;;;13.50;99.90;;;;;;5009399;28;20107;-66
2022/10/26 08:13:41;;;;;;;8.25;5.60;;;13.80;99.90;;;;;;5014555;28;20060;-67
2022/10/26 08:16:07;;;;;;;6.88;4.60;;;15.00;99.90;;;;;;5014960;28;20038;-67
2022/10/26 08:18:33;;;;;;;7.65;5.10;;;15.80;99.90;;;;;;5008274;28;20572;-67
2022/10/26 08:21:04;;;;;;;7.07;5.43;;;15.80;99.90;;;;;;5013674;28;20128;-67
2022/10/26 08:23:31;;;;;;;9.20;5.28;;;15.50;99.90;;;;;;4999136;28;20041;-67
2022/10/26 08:25:58;;;;;;;10.25;5.43;;;15.20;99.90;;;;;;5010796;28;20029;-67
2022/10/26 08:28:24;;;;;;;8.05;5.07;;;15.00;99.90;;;;;;5025970;28;20676;-66
2022/10/26 08:30:50;;;;;;;8.52;5.05;;;14.70;99.90;;;;;;5011596;28;20038;-67
2022/10/26 08:33:15;;;;;;;6.45;5.05;;;14.40;99.90;;;;;;5020523;28;20029;-66
2022/10/26 08:35:41;;;;;;;6.47;5.10;;;14.30;99.90;;;;;;5021504;28;20022;-66
2022/10/26 08:38:07;;;;;;;9.45;5.55;;;14.20;99.90;;;;;;5015906;28;20173;-66
2022/10/26 08:40:36;;;;;;;10.02;5.35;;;14.80;99.90;;;;;;5013551;28;20068;-67
2022/10/26 08:43:38;;;;;;;7.63;4.93;;;16.20;99.90;;;;;;5020029;28;20480;-69
2022/10/26 08:46:13;;;;;;;5.45;4.63;;;17.80;99.90;;;;;;5023879;28;20387;-68
2022/10/26 08:48:47;;;;;;;7.03;4.45;;;19.20;99.90;;;;;;5012355;28;20037;-69
2022/10/26 08:51:18;;;;;;;6.57;4.18;;;20.20;99.90;;;;;;5029367;28;20049;-69
2022/10/26 08:53:57;;;;;;;5.82;3.92;;;20.90;99.90;;;;;;4987710;28;20057;-68
2022/10/26 08:56:26;;;;;;;7.15;3.75;;;21.40;99.90;;;;;;5027883;28;20077;-69
2022/10/26 08:59:21;;;;;;;9.55;3.97;;;21.80;99.90;;;;;;5013643;28;20038;-67
2022/10/26 09:01:48;;;;;;;7.18;3.15;;;22.20;99.90;;;;;;5013829;28;20036;-69
2022/10/26 09:04:13;;;;;;;5.63;3.50;;;22.30;99.90;;;;;;5010527;28;20049;-68
2022/10/26 09:06:53;;;;;;;9.10;3.28;;;22.60;99.90;;;;;;5012675;28;20103;-68
2022/10/26 09:09:58;;;;;;;4.38;3.05;;;23.00;99.90;;;;;;5012667;28;20049;-68
2022/10/26 09:12:56;;;;;;;6.20;2.90;;;23.20;98.00;;;;;;4999539;28;20060;-68
2022/10/26 09:15:37;;;;;;;5.45;2.83;;;23.00;99.10;;;;;;5000644;28;20058;-68
2022/10/26 09:18:18;;;;;;;8.15;3.15;;;23.40;99.30;;;;;;4993224;28;20477;-69
2022/10/26 09:21:01;;;;;;;5.00;2.58;;;23.90;95.90;;;;;;5003119;28;20062;-69
2022/10/26 09:23:30;;;;;;;5.53;2.55;;;23.90;94.80;;;;;;4993717;28;20640;-69
2022/10/26 09:26:02;;;;;;;5.47;2.67;;;23.60;95.60;;;;;;4996694;28;21070;-68
2022/10/26 09:28:33;;;;;;;8.30;2.55;;;23.60;94.80;;;;;;5010127;28;20140;-70
2022/10/26 09:31:02;;;;;;;7.07;2.90;;;23.70;94.60;;;;;;5026828;28;20413;-68
2022/10/26 09:33:30;;;;;;;7.07;2.33;;;24.00;94.00;;;;;;4992606;28;20072;-69
2022/10/26 09:36:22;;;;;;;4.38;2.40;;;24.40;93.50;;;;;;5031457;28;20240;-69
2022/10/26 09:39:19;;;;;;;7.90;3.20;;;25.00;90.10;;;;;;4993519;28;20057;-69
2022/10/26 09:41:53;;;;;;;8.00;2.97;;;24.70;90.20;;;;;;4992597;28;20155;-71
2022/10/26 09:44:35;;;;;;;4.93;2.60;;;23.70;91.60;;;;;;5014949;28;20042;-69
2022/10/26 09:47:13;;;;;;;5.75;2.35;;;22.60;92.50;;;;;;5028308;28;20042;-70
2022/10/26 09:49:48;;;;;;;5.15;1.95;;;21.60;93.80;;;;;;4994351;28;20069;-69
2022/10/26 09:52:15;;;;;;;4.35;2.20;;;20.80;95.60;;;;;;5001991;28;20826;-69
2022/10/26 09:54:41;;;;;;;5.43;2.33;;;20.20;97.30;;;;;;4994302;28;20184;-71
2022/10/26 09:57:08;;;;;;;7.32;2.33;;;19.90;98.80;;;;;;4992959;28;20061;-69
2022/10/26 09:59:38;;;;;;;4.97;2.58;;;19.80;99.90;;;;;;4998805;28;20050;-69
2022/10/26 10:02:32;;;;;;;6.72;2.55;;;19.60;99.90;;;;;;5023762;28;20050;-70
2022/10/26 10:04:58;;;;;;;5.13;2.28;;;19.50;99.90;;;;;;5026784;28;20041;-70
2022/10/26 10:07:24;;;;;;;6.80;2.80;;;19.70;99.90;;;;;;4998411;28;20397;-69
2022/10/26 10:10:20;;;;;;;2.67;1.98;;;20.00;99.90;;;;;;4997670;28;20037;-66
2022/10/26 10:12:49;;;;;;;9.25;2.50;;;20.10;99.90;;;;;;5012332;28;20057;-66
2022/10/26 10:15:23;;;;;;;8.48;2.33;;;20.80;99.90;;;;;;5013139;28;20453;-66
2022/10/26 10:17:51;;;;;;;6.13;2.60;;;21.00;99.90;;;;;;5007391;28;20062;-66
2022/10/26 10:20:22;;;;;;;4.63;1.95;;;21.00;99.90;;;;;;5012863;28;20038;-67
2022/10/26 10:22:57;;;;;;;4.82;2.10;;;21.20;99.50;;;;;;5011693;28;20045;-67
2022/10/26 10:25:35;;;;;;;4.68;2.20;;;21.10;99.80;;;;;;5027807;28;20064;-67
2022/10/26 10:28:01;;;;;;;6.53;2.40;;;20.70;99.90;;;;;;5011346;28;20389;-67
2022/10/26 10:30:32;;;;;;;7.40;2.67;;;20.40;99.90;;;;;;5014708;28;20080;-66
2022/10/26 10:33:10;;;;;;;3.83;2.13;;;20.10;99.90;;;;;;5011077;28;20077;-67
2022/10/26 10:35:39;;;;;;;5.82;2.05;;;20.20;99.90;;;;;;5004769;28;20382;-67
2022/10/26 10:38:05;;;;;;;7.95;2.42;;;20.60;99.90;;;;;;5012111;28;20124;-67
2022/10/26 10:40:31;;;;;;;5.95;2.38;;;21.80;99.90;;;;;;5013034;28;20108;-67
2022/10/26 10:43:13;;;;;;;4.32;1.98;;;22.80;99.90;;;;;;5013899;28;20034;-66
2022/10/26 10:45:39;;;;;;;6.18;2.35;;;23.60;97.80;;;;;;5010505;28;20044;-67
2022/10/26 10:48:11;;;;;;;5.90;2.03;;;24.10;96.80;;;;;;5010646;28;20061;-67
2022/10/26 10:50:49;;;;;;;6.65;1.90;;;23.90;95.70;;;;;;4997274;28;20539;-67
2022/10/26 10:53:20;;;;;;;5.70;2.00;;;23.90;95.20;;;;;;5008957;28;20040;-67
2022/10/26 10:56:22;;;;;;;8.05;2.30;;;23.80;94.90;;;;;;5017036;28;20034;-67
2022/10/26 10:59:04;;;;;;;6.00;1.88;;;23.40;94.40;;;;;;5017347;28;20038;-67
2022/10/26 11:01:37;;;;;;;2.42;1.58;;;23.30;94.90;;;;;;5012820;28;20041;-68
2022/10/26 11:04:24;;;;;;;3.88;1.70;;;23.30;95.00;;;;;;5019383;28;20351;-67
2022/10/26 11:06:52;;;;;;;5.50;1.90;;;23.50;94.20;;;;;;5011688;28;20532;-68
2022/10/26 11:09:24;;;;;;;3.97;1.98;;;23.50;93.70;;;;;;4992753;28;20034;-67
2022/10/26 11:11:55;;;;;;;5.15;1.58;;;23.20;94.00;;;;;;5014155;28;20063;-68
2022/10/26 11:14:32;;;;;;;4.80;1.70;;;22.70;94.50;;;;;;5008761;28;20485;-68
2022/10/26 11:17:03;;;;;;;5.50;1.90;;;22.40;95.20;;;;;;5014379;28;20037;-67
2022/10/26 11:19:38;;;;;;;5.43;2.20;;;22.30;96.30;;;;;;5009581;28;20042;-67
2022/10/26 11:22:09;;;;;;;6.05;2.05;;;22.20;96.60;;;;;;5010957;28;20883;-67
2022/10/26 11:24:55;;;;;;;4.97;1.83;;;21.90;97.00;;;;;;5016531;28;20038;-67
2022/10/26 11:27:40;;;;;;;5.38;2.05;;;21.50;97.20;;;;;;5014134;28;20038;-67
2022/10/26 11:30:17;;;;;;;4.97;1.70;;;21.30;98.00;;;;;;5007701;28;20065;-67
2022/10/26 11:33:08;;;;;;;4.55;1.52;;;21.10;99.30;;;;;;5009095;28;20509;-67
2022/10/26 11:35:36;;;;;;;8.38;2.08;;;20.90;99.90;;;;;;5015051;28;20046;-67
2022/10/26 11:38:14;;;;;;;5.43;1.80;;;20.80;99.90;;;;;;5011963;28;20052;-67
2022/10/26 11:41:19;;;;;;;5.03;1.80;;;20.60;99.90;;;;;;5011992;28;20057;-67
2022/10/26 11:43:52;;;;;;;6.68;1.88;;;20.50;99.90;;;;;;5006059;28;20057;-67
2022/10/26 11:46:44;;;;;;;4.30;1.67;;;20.20;99.90;;;;;;5006259;28;20046;-67
2022/10/26 11:49:18;;;;;;;4.43;1.67;;;20.00;99.90;;;;;;5015273;28;20070;-67
2022/10/26 11:52:04;;;;;;;4.57;2.05;;;19.90;99.90;;;;;;5019429;28;20444;-67
2022/10/26 11:54:41;;;;;;;7.18;2.15;;;19.80;99.90;;;;;;5018164;28;20034;-67
2022/10/26 11:57:09;;;;;;;5.00;1.95;;;19.70;99.90;;;;;;5017304;28;20056;-67
2022/10/26 11:59:41;;;;;;;6.05;2.47;;;19.60;99.90;;;;;;5009309;28;20042;-67
2022/10/26 12:02:24;;;;;;;5.50;1.75;;;19.50;99.90;;;;;;5011561;28;20037;-68
2022/10/26 12:04:59;;;;;;;5.55;2.13;;;19.50;99.90;;;;;;5012133;28;20355;-67
2022/10/26 12:07:35;;;;;;;6.68;2.35;;;19.30;99.90;;;;;;5013557;28;20107;-67
2022/10/26 12:10:05;;;;;;;6.03;2.05;;;19.30;99.90;;;;;;5014014;28;20052;-68
2022/10/26 12:12:43;;;;;;;5.13;1.95;;;19.40;99.90;;;;;;5010538;28;20041;-67
2022/10/26 12:15:20;;;;;;;8.43;2.40;;;19.40;99.90;;;;;;5017260;28;20073;-67
2022/10/26 12:18:08;;;;;;;3.97;2.10;;;19.60;99.90;;;;;;5016589;28;20397;-67
2022/10/26 12:20:53;;;;;;;4.22;1.67;;;19.70;99.90;;;;;;5011480;28;20381;-67
2022/10/26 12:23:20;;;;;;;6.05;1.80;;;19.70;99.90;;;;;;5013450;28;20038;-67
2022/10/26 12:25:46;;;;;;;4.45;1.70;;;19.60;99.90;;;;;;5015434;28;20045;-67
2022/10/26 12:28:38;;;;;;;6.28;1.95;;;19.50;99.90;;;;;;5010462;28;20122;-67
2022/10/26 12:31:35;;;;;;;5.13;2.00;;;19.50;99.90;;;;;;4994556;28;20056;-67
2022/10/26 12:34:02;;;;;;;4.72;1.73;;;19.40;99.90;;;;;;5012016;28;20137;-67
2022/10/26 12:36:55;;;;;;;4.18;1.92;;;19.30;99.90;;;;;;5015465;28;20045;-67
2022/10/26 12:39:32;;;;;;;7.53;2.47;;;19.30;99.90;;;;;;5017703;28;20065;-67
2022/10/26 12:42:04;;;;;;;5.20;2.10;;;19.30;99.90;;;;;;5018691;28;20121;-67
2022/10/26 12:44:47;;;;;;;5.60;2.33;;;19.40;99.90;;;;;;5015994;28;20053;-67
2022/10/26 12:47:28;;;;;;;5.47;2.20;;;19.40;99.90;;;;;;5016776;28;20127;-68
2022/10/26 12:50:17;;;;;;;6.07;2.47;;;19.50;99.90;;;;;;5016299;28;20504;-67
2022/10/26 12:52:47;;;;;;;7.10;2.20;;;19.50;99.90;;;;;;5010452;28;20053;-67
2022/10/26 12:55:32;;;;;;;6.30;2.20;;;19.60;99.90;;;;;;5018069;28;20058;-67
2022/10/26 12:58:18;;;;;;;6.65;2.40;;;19.60;99.90;;;;;;5008309;28;20676;-67
2022/10/26 13:00:57;;;;;;;6.30;2.30;;;19.60;99.90;;;;;;5013988;28;20042;-67
2022/10/26 13:03:38;;;;;;;7.60;2.20;;;19.50;99.90;;;;;;5013578;28;20095;-70
2022/10/26 13:06:10;;;;;;;8.32;2.55;;;19.40;99.90;;;;;;5012697;28;20081;-70